Time;durP1;ratioP1;P1;durP2;ratioP2;P2;SDS_P1;SDS_P2;PMS_P1;PMS_P2;Temp;Humidity;BMP_temperature;BMP_pressure;BME280_temperature;BME280_humidity;BME280_pressure;Samples;Min_cycle;Max_cycle;Signal;HPM_P1;HPM_P2
2024/01/14 00:01:17;;;;;;;16.93;7.20;;;3.20;99.90;;;;;;5050476;28;20310;-77
2024/01/14 00:03:44;;;;;;;15.90;6.83;;;3.20;99.90;;;;;;5045155;28;20227;-77
2024/01/14 00:06:11;;;;;;;19.90;8.50;;;3.20;99.90;;;;;;5047753;28;20206;-79
2024/01/14 00:08:37;;;;;;;17.00;8.13;;;3.10;99.90;;;;;;5049668;28;20199;-78
2024/01/14 00:11:05;;;;;;;16.83;7.23;;;3.10;99.90;;;;;;5044429;28;20207;-77
2024/01/14 00:13:31;;;;;;;15.17;7.00;;;3.10;99.90;;;;;;5048996;28;20225;-78
2024/01/14 00:15:59;;;;;;;15.10;6.53;;;3.10;99.90;;;;;;5038948;28;20216;-79
2024/01/14 00:18:27;;;;;;;16.23;7.70;;;3.00;99.90;;;;;;5051016;28;20275;-79
2024/01/14 00:20:54;;;;;;;14.07;6.60;;;3.00;99.90;;;;;;5054168;28;20222;-79
2024/01/14 00:23:21;;;;;;;15.50;6.83;;;3.00;99.90;;;;;;5053805;28;20285;-77
2024/01/14 00:25:47;;;;;;;14.13;6.63;;;3.00;99.90;;;;;;5050673;28;20210;-78
2024/01/14 00:28:14;;;;;;;15.17;6.37;;;3.00;99.90;;;;;;5047840;28;20271;-78
2024/01/14 00:30:41;;;;;;;14.60;6.60;;;3.00;99.90;;;;;;5047874;28;20199;-79
2024/01/14 00:33:08;;;;;;;13.23;6.90;;;3.00;99.90;;;;;;5047998;28;20211;-78
2024/01/14 00:35:36;;;;;;;16.40;7.53;;;3.00;99.90;;;;;;5043546;28;20227;-79
2024/01/14 00:38:03;;;;;;;12.63;6.57;;;3.00;99.90;;;;;;5045796;28;20204;-78
2024/01/14 00:40:30;;;;;;;15.70;7.10;;;3.00;99.90;;;;;;5050589;28;20591;-77
2024/01/14 00:42:57;;;;;;;15.50;6.70;;;3.00;99.90;;;;;;5047620;28;20204;-77
2024/01/14 00:45:23;;;;;;;13.67;6.90;;;3.00;99.90;;;;;;5047440;28;20313;-79
2024/01/14 00:47:50;;;;;;;15.97;7.90;;;3.00;99.90;;;;;;5045715;28;20209;-79
2024/01/14 00:50:17;;;;;;;18.63;8.90;;;3.10;99.90;;;;;;5044406;28;20206;-79
2024/01/14 00:52:45;;;;;;;17.23;8.23;;;3.20;99.90;;;;;;5049442;28;20832;-78
2024/01/14 00:55:12;;;;;;;20.13;8.67;;;3.20;99.90;;;;;;5049753;28;20333;-79
2024/01/14 00:57:39;;;;;;;18.17;8.13;;;3.20;99.90;;;;;;5044943;28;20200;-78
2024/01/14 01:00:09;;;;;;;20.80;8.57;;;3.20;99.90;;;;;;5043872;28;20227;-77
2024/01/14 01:02:35;;;;;;;21.30;9.13;;;3.10;99.90;;;;;;5045368;28;20214;-78
2024/01/14 01:05:02;;;;;;;18.00;8.80;;;3.20;99.90;;;;;;5049799;28;20226;-76
2024/01/14 01:07:29;;;;;;;19.27;7.90;;;3.10;99.90;;;;;;5051202;28;20259;-77
2024/01/14 01:09:57;;;;;;;19.30;7.93;;;3.10;99.90;;;;;;5057237;28;20562;-78
2024/01/14 01:12:24;;;;;;;18.30;8.10;;;3.50;99.90;;;;;;5042998;28;20207;-77
2024/01/14 01:14:51;;;;;;;18.33;8.33;;;3.10;99.90;;;;;;5041661;28;20230;-78
2024/01/14 01:17:18;;;;;;;20.07;7.83;;;3.10;99.90;;;;;;5050178;28;20207;-78
2024/01/14 01:19:45;;;;;;;15.43;7.20;;;3.20;99.90;;;;;;5049197;28;20210;-76
2024/01/14 01:22:12;;;;;;;22.47;9.70;;;3.20;99.90;;;;;;5042896;28;20229;-78
2024/01/14 01:24:38;;;;;;;17.63;7.73;;;3.20;99.90;;;;;;5041288;28;20227;-76
2024/01/14 01:27:07;;;;;;;16.23;6.87;;;3.20;99.90;;;;;;5046404;28;20226;-79
2024/01/14 01:29:33;;;;;;;18.03;7.83;;;3.20;99.90;;;;;;5044265;28;20207;-79
2024/01/14 01:32:00;;;;;;;16.37;7.67;;;3.20;99.90;;;;;;5041908;28;20204;-78
2024/01/14 01:34:27;;;;;;;15.00;6.87;;;3.20;99.90;;;;;;5041352;28;20224;-77
2024/01/14 01:36:54;;;;;;;17.53;6.80;;;3.20;99.90;;;;;;5042568;28;20569;-76
2024/01/14 01:39:21;;;;;;;14.03;6.57;;;3.20;99.90;;;;;;5035108;28;20196;-78
2024/01/14 01:41:49;;;;;;;14.77;7.10;;;3.20;99.90;;;;;;5040517;28;20215;-75
2024/01/14 01:44:17;;;;;;;14.50;7.07;;;3.20;99.90;;;;;;5044420;28;20823;-78
2024/01/14 01:46:44;;;;;;;14.87;6.73;;;3.30;99.90;;;;;;5045187;28;20241;-78
2024/01/14 01:49:11;;;;;;;13.40;6.40;;;3.20;99.90;;;;;;5039317;28;20660;-77
2024/01/14 01:51:40;;;;;;;14.10;6.13;;;3.20;99.90;;;;;;5036632;28;20207;-76
2024/01/14 01:54:08;;;;;;;16.23;6.43;;;3.10;99.90;;;;;;5037441;28;20219;-76
2024/01/14 01:56:37;;;;;;;12.53;6.37;;;3.10;99.90;;;;;;5038088;28;20200;-78
2024/01/14 01:59:05;;;;;;;13.83;6.17;;;3.10;99.90;;;;;;5040545;28;20269;-77
2024/01/14 02:01:35;;;;;;;12.37;5.90;;;3.00;99.90;;;;;;5040223;28;22192;-79
2024/01/14 02:04:03;;;;;;;13.47;6.03;;;3.00;99.90;;;;;;5040069;28;20235;-78
2024/01/14 02:06:32;;;;;;;13.40;5.63;;;3.00;99.90;;;;;;5039503;28;20212;-78
2024/01/14 02:08:59;;;;;;;12.87;6.00;;;2.90;99.90;;;;;;5042923;28;20199;-78
2024/01/14 02:11:26;;;;;;;12.00;6.57;;;2.90;99.90;;;;;;5038571;28;20199;-76
2024/01/14 02:13:53;;;;;;;13.53;7.10;;;2.80;99.90;;;;;;5045084;28;20235;-76
2024/01/14 02:16:20;;;;;;;12.60;6.07;;;2.80;99.90;;;;;;5044613;28;20207;-78
2024/01/14 02:18:48;;;;;;;14.67;7.00;;;2.80;99.90;;;;;;5045828;28;20214;-76
2024/01/14 02:21:20;;;;;;;14.17;6.63;;;2.80;99.90;;;;;;5043327;28;20227;-76
2024/01/14 02:23:53;;;;;;;12.67;6.20;;;2.70;99.90;;;;;;5044274;28;20797;-78
2024/01/14 02:26:22;;;;;;;12.67;6.10;;;2.70;99.90;;;;;;5039823;28;20199;-79
2024/01/14 02:28:49;;;;;;;14.93;6.63;;;2.70;99.90;;;;;;5042204;28;20214;-78
2024/01/14 02:31:16;;;;;;;14.37;6.27;;;2.70;99.90;;;;;;5045352;28;20657;-77
2024/01/14 02:33:43;;;;;;;14.50;6.20;;;2.70;99.90;;;;;;5038893;28;20229;-77
2024/01/14 02:36:09;;;;;;;13.40;6.93;;;2.70;99.90;;;;;;5040942;28;20208;-78
2024/01/14 02:38:36;;;;;;;10.53;5.07;;;2.60;99.90;;;;;;5041526;28;20208;-78
2024/01/14 02:41:03;;;;;;;13.47;6.77;;;2.60;99.90;;;;;;5036455;28;20311;-79
2024/01/14 02:43:31;;;;;;;15.00;7.03;;;2.70;99.90;;;;;;5041890;28;20206;-78
2024/01/14 02:45:58;;;;;;;13.43;6.57;;;2.70;99.90;;;;;;5038339;28;20211;-76
2024/01/14 02:48:25;;;;;;;15.20;6.37;;;2.70;99.90;;;;;;5038673;28;20203;-78
2024/01/14 02:50:51;;;;;;;12.67;6.33;;;2.70;99.90;;;;;;5039961;28;20196;-78
2024/01/14 02:53:18;;;;;;;15.23;6.27;;;2.70;99.90;;;;;;5042471;28;20654;-76
2024/01/14 02:55:45;;;;;;;14.73;6.20;;;2.70;99.90;;;;;;5040121;28;20574;-77
2024/01/14 02:58:12;;;;;;;11.77;6.00;;;2.70;99.90;;;;;;5039377;28;20570;-77
2024/01/14 03:00:40;;;;;;;12.10;5.17;;;2.80;99.90;;;;;;5041777;28;20250;-76
2024/01/14 03:03:07;;;;;;;12.03;6.40;;;2.70;99.90;;;;;;5039914;28;20208;-78
2024/01/14 03:05:34;;;;;;;13.63;5.47;;;2.70;99.90;;;;;;5041283;28;20231;-77
2024/01/14 03:08:00;;;;;;;10.77;4.97;;;2.70;99.90;;;;;;5039459;28;20242;-78
2024/01/14 03:10:27;;;;;;;12.00;5.70;;;2.70;99.90;;;;;;5038862;28;20210;-78
2024/01/14 03:12:54;;;;;;;11.50;4.27;;;2.70;99.90;;;;;;5036206;28;20206;-77
2024/01/14 03:15:21;;;;;;;11.03;5.00;;;2.70;99.90;;;;;;5038607;28;20338;-78
2024/01/14 03:17:49;;;;;;;9.03;4.80;;;2.60;99.90;;;;;;5042123;28;20223;-77
2024/01/14 03:20:16;;;;;;;10.37;5.07;;;2.60;99.90;;;;;;5043848;28;20203;-78
2024/01/14 03:22:43;;;;;;;9.70;5.07;;;2.60;99.90;;;;;;5040434;28;20203;-79
2024/01/14 03:25:10;;;;;;;10.57;5.00;;;2.60;99.90;;;;;;5038348;28;20223;-79
2024/01/14 03:27:37;;;;;;;12.07;4.80;;;2.50;99.90;;;;;;5032259;28;20663;-77
2024/01/14 03:30:05;;;;;;;8.40;4.80;;;2.50;99.90;;;;;;5044159;28;20210;-77
2024/01/14 03:32:32;;;;;;;9.63;5.10;;;2.50;99.90;;;;;;5042675;28;20200;-78
2024/01/14 03:35:00;;;;;;;13.33;6.00;;;2.50;99.90;;;;;;5040634;28;20600;-77
2024/01/14 03:37:26;;;;;;;11.07;5.73;;;2.50;99.90;;;;;;5040980;28;20208;-78
2024/01/14 03:39:54;;;;;;;11.70;5.33;;;2.40;99.90;;;;;;5040001;28;20282;-78
2024/01/14 03:42:20;;;;;;;12.90;6.10;;;2.50;99.90;;;;;;5039545;28;21027;-77
2024/01/14 03:44:47;;;;;;;10.20;5.53;;;2.40;99.90;;;;;;5040398;28;20220;-78
2024/01/14 03:47:14;;;;;;;13.80;6.13;;;2.40;99.90;;;;;;5043170;28;20231;-77
2024/01/14 03:49:41;;;;;;;11.57;5.83;;;2.40;99.90;;;;;;5041666;28;20290;-76
2024/01/14 03:52:09;;;;;;;13.13;5.30;;;2.40;99.90;;;;;;5038426;28;20290;-78
2024/01/14 03:54:36;;;;;;;8.33;4.63;;;2.40;99.90;;;;;;5038737;28;20224;-75
2024/01/14 03:57:02;;;;;;;8.77;4.40;;;2.40;99.90;;;;;;5044184;28;20207;-78
2024/01/14 03:59:29;;;;;;;9.93;3.90;;;2.40;99.90;;;;;;5045765;28;20207;-78
2024/01/14 04:01:56;;;;;;;9.70;4.30;;;2.40;99.90;;;;;;5043876;28;20227;-76
2024/01/14 04:04:23;;;;;;;8.43;3.73;;;2.70;99.90;;;;;;5040427;28;20227;-78
2024/01/14 04:06:49;;;;;;;6.87;3.87;;;2.40;99.90;;;;;;5039434;28;20200;-78
2024/01/14 04:09:18;;;;;;;6.57;3.90;;;2.40;99.90;;;;;;5040513;28;20231;-77
2024/01/14 04:11:44;;;;;;;5.40;3.37;;;2.40;99.90;;;;;;5041830;28;20191;-77
2024/01/14 04:14:11;;;;;;;6.73;3.80;;;2.40;99.90;;;;;;5042191;28;20224;-78
2024/01/14 04:16:38;;;;;;;8.07;3.90;;;2.40;99.90;;;;;;5037205;28;20230;-78
2024/01/14 04:19:05;;;;;;;7.63;4.10;;;2.40;99.90;;;;;;5036316;28;20204;-78
2024/01/14 04:21:32;;;;;;;7.13;3.70;;;2.60;99.90;;;;;;5040046;28;20330;-77
2024/01/14 04:23:59;;;;;;;8.57;4.37;;;2.40;99.90;;;;;;5040317;28;20723;-77
2024/01/14 04:26:27;;;;;;;7.63;4.00;;;2.50;99.90;;;;;;5040083;28;20250;-81
2024/01/14 04:28:54;;;;;;;6.53;3.53;;;2.40;99.90;;;;;;5043709;28;20200;-76
2024/01/14 04:31:21;;;;;;;6.17;3.70;;;2.40;99.90;;;;;;5040572;28;20196;-76
2024/01/14 04:33:48;;;;;;;7.60;4.03;;;2.40;99.90;;;;;;5040795;28;20624;-76
2024/01/14 04:36:15;;;;;;;6.57;3.97;;;2.50;99.90;;;;;;5044325;28;20199;-78
2024/01/14 04:38:42;;;;;;;5.90;3.93;;;2.40;99.90;;;;;;5042677;28;20623;-77
2024/01/14 04:41:09;;;;;;;6.67;3.40;;;2.50;99.90;;;;;;5047499;28;20212;-77
2024/01/14 04:43:38;;;;;;;5.93;3.87;;;2.40;99.90;;;;;;5045381;28;20273;-78
2024/01/14 04:46:08;;;;;;;6.63;3.13;;;2.40;99.90;;;;;;5044515;28;20606;-79
2024/01/14 04:48:34;;;;;;;5.30;3.00;;;2.40;99.90;;;;;;5043732;28;20232;-78
2024/01/14 04:51:01;;;;;;;5.70;2.93;;;2.40;99.90;;;;;;5043058;28;20200;-76
2024/01/14 04:53:28;;;;;;;4.20;3.10;;;2.40;99.90;;;;;;5041753;28;20211;-78
2024/01/14 04:55:55;;;;;;;5.73;3.47;;;2.50;99.90;;;;;;5041324;28;20211;-78
2024/01/14 04:58:22;;;;;;;4.70;2.60;;;2.50;99.90;;;;;;5044972;28;20195;-77
2024/01/14 05:00:50;;;;;;;4.83;2.90;;;2.50;99.90;;;;;;5049723;28;20289;-77
2024/01/14 05:03:17;;;;;;;5.57;3.00;;;2.50;99.90;;;;;;5046621;28;20203;-79
2024/01/14 05:05:43;;;;;;;4.77;2.97;;;2.50;99.90;;;;;;5050003;28;20211;-76
2024/01/14 05:08:10;;;;;;;4.70;2.93;;;2.60;99.90;;;;;;5046161;28;20207;-78
2024/01/14 05:10:37;;;;;;;5.97;3.27;;;2.60;99.90;;;;;;5042891;28;20204;-80
2024/01/14 05:13:04;;;;;;;5.83;3.20;;;2.60;99.90;;;;;;5042722;28;20230;-76
2024/01/14 05:15:31;;;;;;;6.03;3.13;;;2.60;99.90;;;;;;5036627;28;20239;-78
2024/01/14 05:17:59;;;;;;;6.57;3.00;;;2.50;99.90;;;;;;5033182;28;20250;-78
2024/01/14 05:20:25;;;;;;;5.27;3.33;;;2.50;99.90;;;;;;5041155;28;20204;-77
2024/01/14 05:22:52;;;;;;;5.03;3.17;;;2.50;99.90;;;;;;5043283;28;20230;-77
2024/01/14 05:25:19;;;;;;;5.73;3.30;;;2.60;99.90;;;;;;5040633;28;20223;-77
2024/01/14 05:27:46;;;;;;;7.30;3.90;;;2.60;99.90;;;;;;5043026;28;20210;-77
2024/01/14 05:30:14;;;;;;;6.03;3.53;;;2.60;99.90;;;;;;5035760;28;20199;-77
2024/01/14 05:32:40;;;;;;;7.90;3.60;;;2.60;99.90;;;;;;5037711;28;20266;-77
2024/01/14 05:35:09;;;;;;;8.67;3.40;;;2.50;99.90;;;;;;5040121;28;20235;-79
2024/01/14 05:37:36;;;;;;;5.87;3.60;;;2.60;99.90;;;;;;5042592;28;20204;-78
2024/01/14 05:40:04;;;;;;;10.83;4.30;;;2.50;99.90;;;;;;5039236;28;20203;-77
2024/01/14 05:42:31;;;;;;;5.90;3.53;;;2.50;99.90;;;;;;5038716;28;20700;-78
2024/01/14 05:44:58;;;;;;;6.67;3.17;;;2.50;99.90;;;;;;5041091;28;20223;-77
2024/01/14 05:47:25;;;;;;;8.33;3.63;;;2.40;99.90;;;;;;5042040;28;20207;-76
2024/01/14 05:49:52;;;;;;;7.00;3.40;;;2.40;99.90;;;;;;5041164;28;20200;-77
2024/01/14 05:52:20;;;;;;;7.87;3.33;;;2.50;99.90;;;;;;5044115;28;20725;-77
2024/01/14 05:54:47;;;;;;;9.73;3.70;;;2.50;99.90;;;;;;5039020;28;20310;-78
2024/01/14 05:57:13;;;;;;;6.37;3.37;;;2.60;99.90;;;;;;5042358;28;20271;-78
2024/01/14 05:59:41;;;;;;;10.17;3.60;;;2.60;99.90;;;;;;5042060;28;20654;-80
2024/01/14 06:02:07;;;;;;;11.00;4.20;;;2.60;99.90;;;;;;5042380;28;20253;-76
2024/01/14 06:04:34;;;;;;;7.63;3.57;;;2.60;99.90;;;;;;5044224;28;21534;-77
2024/01/14 06:07:01;;;;;;;8.50;3.80;;;2.60;99.90;;;;;;5041733;28;20200;-77
2024/01/14 06:09:29;;;;;;;7.13;3.80;;;2.60;99.90;;;;;;5045613;28;20203;-77
2024/01/14 06:11:56;;;;;;;6.67;3.77;;;2.60;99.90;;;;;;5043069;28;20195;-76
2024/01/14 06:14:23;;;;;;;11.23;4.70;;;2.50;99.90;;;;;;5047901;28;20744;-78
2024/01/14 06:16:50;;;;;;;10.93;4.67;;;2.50;99.90;;;;;;5042099;28;20243;-76
2024/01/14 06:19:17;;;;;;;14.17;5.27;;;2.50;99.90;;;;;;5039390;28;20203;-77
2024/01/14 06:21:44;;;;;;;9.40;4.87;;;2.50;99.90;;;;;;5039124;28;20219;-78
2024/01/14 06:24:13;;;;;;;11.90;5.07;;;2.50;99.90;;;;;;5041845;28;20246;-78
2024/01/14 06:26:41;;;;;;;12.43;5.30;;;2.50;99.90;;;;;;5036643;28;20709;-76
2024/01/14 06:29:08;;;;;;;13.07;5.57;;;2.60;99.90;;;;;;5041915;28;20199;-78
2024/01/14 06:31:35;;;;;;;14.57;6.00;;;2.60;99.90;;;;;;5037863;28;20295;-77
2024/01/14 06:34:02;;;;;;;13.57;6.87;;;2.60;99.90;;;;;;5037943;28;20223;-77
2024/01/14 06:36:29;;;;;;;10.90;6.40;;;2.60;99.90;;;;;;5040897;28;20282;-77
2024/01/14 06:38:55;;;;;;;14.93;7.23;;;2.60;99.90;;;;;;5042069;28;20203;-78
2024/01/14 06:41:23;;;;;;;11.60;5.73;;;2.60;99.90;;;;;;5039073;28;20286;-77
2024/01/14 06:43:51;;;;;;;11.57;5.57;;;2.60;99.90;;;;;;5036725;28;20310;-77
2024/01/14 06:46:18;;;;;;;12.97;6.23;;;2.60;99.90;;;;;;5038197;28;20208;-78
2024/01/14 06:48:45;;;;;;;13.73;6.13;;;2.60;99.90;;;;;;5040122;28;20249;-78
2024/01/14 06:51:12;;;;;;;11.77;6.20;;;2.60;99.90;;;;;;5037627;28;20207;-77
2024/01/14 06:53:39;;;;;;;11.07;5.47;;;2.50;99.90;;;;;;5037847;28;20303;-78
2024/01/14 06:56:06;;;;;;;11.63;6.20;;;2.50;99.90;;;;;;5037984;28;20212;-76
2024/01/14 06:58:34;;;;;;;10.87;5.83;;;2.50;99.90;;;;;;5046413;28;20234;-79
2024/01/14 07:01:04;;;;;;;13.37;6.20;;;2.40;99.90;;;;;;5045307;28;20250;-78
2024/01/14 07:03:31;;;;;;;16.93;7.40;;;2.50;99.90;;;;;;5043857;28;20307;-78
2024/01/14 07:05:58;;;;;;;12.80;5.87;;;2.40;99.90;;;;;;5046587;28;20211;-78
2024/01/14 07:08:25;;;;;;;14.30;6.13;;;2.50;99.90;;;;;;5044534;28;20213;-78
2024/01/14 07:10:52;;;;;;;11.77;5.47;;;2.40;99.90;;;;;;5039485;28;20200;-77
2024/01/14 07:13:19;;;;;;;15.00;6.27;;;2.30;99.90;;;;;;5044692;28;20203;-79
2024/01/14 07:15:45;;;;;;;11.47;5.43;;;2.40;99.90;;;;;;5047482;28;20204;-79
2024/01/14 07:18:14;;;;;;;13.30;4.80;;;2.60;99.90;;;;;;5041453;28;20556;-77
2024/01/14 07:20:41;;;;;;;9.57;4.40;;;2.40;99.90;;;;;;5046145;28;20283;-78
2024/01/14 07:23:08;;;;;;;13.73;5.20;;;2.30;99.90;;;;;;5045766;28;20284;-78
2024/01/14 07:25:35;;;;;;;11.03;4.70;;;2.30;99.90;;;;;;5043169;28;20219;-78
2024/01/14 07:28:02;;;;;;;11.00;5.83;;;2.30;99.90;;;;;;5039543;28;20211;-78
2024/01/14 07:30:29;;;;;;;11.57;4.83;;;2.40;99.90;;;;;;5039143;28;20196;-76
2024/01/14 07:32:57;;;;;;;12.20;4.67;;;2.40;99.90;;;;;;5045785;28;20226;-80
2024/01/14 07:35:26;;;;;;;11.20;4.50;;;2.40;99.90;;;;;;5042506;28;20231;-78
2024/01/14 07:37:53;;;;;;;14.03;5.83;;;2.50;99.90;;;;;;5037916;28;20196;-78
2024/01/14 07:40:20;;;;;;;9.33;4.63;;;2.50;99.90;;;;;;5042274;28;20306;-78
2024/01/14 07:42:47;;;;;;;12.80;3.90;;;2.50;99.90;;;;;;5042703;28;20235;-79
2024/01/14 07:45:14;;;;;;;10.70;4.70;;;2.50;99.90;;;;;;5045716;28;20334;-79
2024/01/14 07:47:41;;;;;;;16.47;5.07;;;2.60;99.90;;;;;;5045216;28;20254;-80
2024/01/14 07:50:09;;;;;;;15.00;7.00;;;2.50;99.90;;;;;;5044423;28;20209;-78
2024/01/14 07:52:37;;;;;;;14.83;6.43;;;2.60;99.90;;;;;;5044459;28;20215;-78
2024/01/14 07:55:04;;;;;;;17.30;6.03;;;2.60;99.90;;;;;;5045612;28;20227;-77
2024/01/14 07:57:30;;;;;;;15.13;6.37;;;2.50;99.90;;;;;;5052476;28;20242;-78
2024/01/14 07:59:57;;;;;;;17.70;6.63;;;2.50;99.90;;;;;;5048368;28;20204;-79
2024/01/14 08:02:24;;;;;;;17.57;7.30;;;2.50;99.90;;;;;;5052796;28;20874;-77
2024/01/14 08:04:51;;;;;;;16.97;7.30;;;2.50;99.90;;;;;;5046419;28;20238;-78
2024/01/14 08:07:18;;;;;;;18.40;7.20;;;2.50;99.90;;;;;;5048156;28;20202;-76
2024/01/14 08:09:46;;;;;;;19.30;7.30;;;2.50;99.90;;;;;;5044847;28;20661;-77
2024/01/14 08:12:13;;;;;;;17.13;7.77;;;2.60;99.90;;;;;;5054357;28;20237;-80
2024/01/14 08:14:39;;;;;;;23.13;8.53;;;2.60;99.90;;;;;;5042356;28;20315;-78
2024/01/14 08:17:06;;;;;;;17.80;8.03;;;2.60;99.90;;;;;;5044258;28;20306;-78
2024/01/14 08:19:33;;;;;;;15.90;7.10;;;2.60;99.90;;;;;;5044413;28;20203;-78
2024/01/14 08:22:00;;;;;;;18.27;6.80;;;2.60;99.90;;;;;;5040150;28;20878;-81
2024/01/14 08:24:26;;;;;;;17.97;7.90;;;2.60;99.90;;;;;;5045375;28;20233;-81
2024/01/14 08:26:55;;;;;;;16.80;7.33;;;2.70;99.90;;;;;;5044929;28;20213;-78
2024/01/14 08:29:21;;;;;;;16.80;7.10;;;2.80;99.90;;;;;;5042745;28;20232;-79
2024/01/14 08:31:48;;;;;;;14.03;6.53;;;3.40;99.90;;;;;;5044008;28;20286;-78
2024/01/14 08:34:15;;;;;;;17.33;6.83;;;3.00;99.90;;;;;;5037364;28;20224;-78
2024/01/14 08:36:42;;;;;;;16.57;7.03;;;3.10;99.90;;;;;;5038678;28;20218;-77
2024/01/14 08:39:09;;;;;;;15.97;6.43;;;3.20;99.90;;;;;;5041140;28;20231;-79
2024/01/14 08:41:35;;;;;;;14.50;6.10;;;3.10;99.90;;;;;;5047052;28;20219;-77
2024/01/14 08:44:06;;;;;;;14.03;6.70;;;3.00;99.90;;;;;;5056005;28;20222;-78
2024/01/14 08:46:33;;;;;;;13.17;6.40;;;3.00;99.90;;;;;;5045308;28;20200;-77
2024/01/14 08:49:00;;;;;;;13.50;6.23;;;3.00;99.90;;;;;;5046631;28;20204;-79
2024/01/14 08:51:27;;;;;;;14.23;6.13;;;3.00;99.90;;;;;;5048129;28;20199;-81
2024/01/14 08:53:58;;;;;;;14.70;6.33;;;3.10;99.90;;;;;;5045702;28;20215;-79
2024/01/14 08:56:25;;;;;;;13.07;6.00;;;3.00;99.90;;;;;;5050221;28;20211;-81
2024/01/14 08:58:52;;;;;;;11.50;5.40;;;3.10;99.90;;;;;;5043126;28;20299;-78
2024/01/14 09:01:20;;;;;;;11.43;5.50;;;3.10;99.90;;;;;;5042497;28;20231;-78
2024/01/14 09:03:47;;;;;;;10.60;5.07;;;3.20;99.90;;;;;;5052795;28;20233;-78
2024/01/14 09:06:13;;;;;;;11.27;4.47;;;3.00;99.90;;;;;;5052432;28;20214;-79
2024/01/14 09:08:40;;;;;;;8.80;4.40;;;3.00;99.90;;;;;;5051444;28;20294;-78
2024/01/14 09:11:08;;;;;;;8.37;3.90;;;3.00;99.90;;;;;;5052055;28;20291;-77
2024/01/14 09:13:35;;;;;;;7.57;4.30;;;3.10;99.90;;;;;;5048098;28;20240;-78
2024/01/14 09:16:02;;;;;;;6.90;4.17;;;3.10;99.90;;;;;;5041691;28;20222;-81
2024/01/14 09:18:30;;;;;;;8.10;4.03;;;3.00;99.90;;;;;;5043432;28;20225;-77
2024/01/14 09:20:57;;;;;;;7.83;4.07;;;3.00;99.90;;;;;;5047589;28;20673;-78
2024/01/14 09:23:23;;;;;;;6.80;4.13;;;3.00;99.90;;;;;;5039676;28;20660;-77
2024/01/14 09:25:50;;;;;;;9.33;4.30;;;3.00;99.90;;;;;;5042647;28;20800;-77
2024/01/14 09:28:17;;;;;;;10.20;4.30;;;3.00;99.90;;;;;;5047567;28;20209;-77
2024/01/14 09:30:44;;;;;;;9.07;4.73;;;2.90;99.90;;;;;;5045839;28;20211;-77
2024/01/14 09:33:10;;;;;;;9.47;5.23;;;2.90;99.90;;;;;;5045519;28;20198;-78
2024/01/14 09:35:39;;;;;;;11.93;5.20;;;2.90;99.90;;;;;;5045551;28;20227;-78
2024/01/14 09:38:05;;;;;;;9.30;5.03;;;2.80;99.90;;;;;;5045968;28;20298;-77
2024/01/14 09:40:33;;;;;;;14.23;5.90;;;2.70;99.90;;;;;;5043039;28;20207;-78
2024/01/14 09:43:04;;;;;;;9.53;5.03;;;2.70;99.90;;;;;;5042565;28;20231;-80
2024/01/14 09:45:34;;;;;;;10.20;5.33;;;2.80;99.90;;;;;;5043585;28;20266;-79
2024/01/14 09:48:02;;;;;;;11.30;6.40;;;2.90;99.90;;;;;;5037954;28;20203;-78
2024/01/14 09:50:29;;;;;;;11.97;5.53;;;2.90;99.90;;;;;;5042004;28;20211;-77
2024/01/14 09:52:59;;;;;;;14.97;7.47;;;2.90;99.90;;;;;;5043635;28;20204;-77
2024/01/14 09:55:26;;;;;;;14.30;6.50;;;2.80;99.90;;;;;;5050537;28;20226;-77
2024/01/14 09:57:54;;;;;;;13.27;6.07;;;2.80;99.90;;;;;;5056029;28;20289;-79
2024/01/14 10:00:23;;;;;;;11.67;5.77;;;2.70;99.90;;;;;;5058427;28;20494;-77
2024/01/14 10:02:51;;;;;;;10.77;5.40;;;2.80;99.90;;;;;;5047893;28;20226;-80
2024/01/14 10:05:18;;;;;;;14.33;6.47;;;2.90;99.90;;;;;;5057114;28;20261;-76
2024/01/14 10:07:46;;;;;;;14.80;6.83;;;2.90;99.90;;;;;;5051270;28;20286;-79
2024/01/14 10:10:14;;;;;;;14.20;6.53;;;3.00;99.90;;;;;;5046024;28;20212;-77
2024/01/14 10:12:41;;;;;;;13.17;6.40;;;3.10;99.90;;;;;;5042744;28;20206;-79
2024/01/14 10:15:09;;;;;;;11.80;5.97;;;3.10;99.90;;;;;;5056530;28;20233;-80
2024/01/14 10:17:35;;;;;;;15.53;6.53;;;3.20;99.90;;;;;;5045945;28;20226;-78
2024/01/14 10:20:02;;;;;;;12.97;6.67;;;3.30;99.90;;;;;;5043848;28;20211;-76
2024/01/14 10:22:30;;;;;;;15.97;7.20;;;3.40;99.90;;;;;;5046510;28;20211;-77
2024/01/14 10:24:58;;;;;;;13.40;6.97;;;3.50;99.90;;;;;;5046072;28;20228;-78
2024/01/14 10:27:27;;;;;;;17.97;7.70;;;3.60;99.90;;;;;;5043834;28;20209;-78
2024/01/14 10:29:53;;;;;;;17.80;7.87;;;3.60;99.90;;;;;;5040553;28;20203;-77
2024/01/14 10:32:20;;;;;;;15.43;8.47;;;3.50;99.90;;;;;;5043378;28;20205;-78
2024/01/14 10:34:47;;;;;;;15.80;7.80;;;3.50;99.90;;;;;;5044330;28;20250;-79
2024/01/14 10:37:14;;;;;;;15.33;8.13;;;3.60;99.90;;;;;;5038775;28;20206;-78
2024/01/14 10:39:41;;;;;;;14.83;7.63;;;3.60;99.90;;;;;;5036341;28;20565;-78
2024/01/14 10:42:09;;;;;;;15.60;7.73;;;3.70;99.90;;;;;;5037712;28;20203;-78
2024/01/14 10:44:37;;;;;;;14.63;7.37;;;3.80;99.90;;;;;;5038510;28;20293;-78
2024/01/14 10:47:07;;;;;;;14.03;7.07;;;3.70;99.90;;;;;;5039803;28;20305;-76
2024/01/14 10:49:35;;;;;;;13.67;6.27;;;3.70;99.90;;;;;;5049054;28;20213;-79
2024/01/14 10:52:08;;;;;;;13.50;6.80;;;3.60;99.90;;;;;;5042158;28;20214;-78
2024/01/14 10:54:40;;;;;;;13.47;6.27;;;3.60;99.90;;;;;;5040753;28;20293;-79
2024/01/14 10:57:15;;;;;;;12.33;6.80;;;3.60;99.90;;;;;;5047647;28;20264;-78
2024/01/14 10:59:45;;;;;;;14.27;7.10;;;3.50;99.90;;;;;;5038907;28;20203;-80
2024/01/14 11:02:17;;;;;;;12.40;6.50;;;3.40;99.90;;;;;;5040358;28;20674;-78
2024/01/14 11:04:45;;;;;;;14.13;7.20;;;3.40;99.90;;;;;;5046581;28;20223;-78
2024/01/14 11:07:12;;;;;;;15.10;7.00;;;3.60;99.90;;;;;;5045959;28;20207;-78
2024/01/14 11:09:41;;;;;;;16.13;7.50;;;3.30;99.90;;;;;;5042552;28;20200;-78
2024/01/14 11:12:14;;;;;;;17.13;8.03;;;3.40;99.90;;;;;;5050080;28;20267;-79
2024/01/14 11:14:48;;;;;;;15.70;7.90;;;3.50;99.90;;;;;;5054125;28;20220;-78
2024/01/14 11:17:24;;;;;;;17.57;8.47;;;3.40;99.90;;;;;;5049403;28;20215;-79
2024/01/14 11:19:51;;;;;;;18.40;8.37;;;3.40;99.90;;;;;;5044718;28;20271;-80
2024/01/14 11:22:24;;;;;;;16.30;8.20;;;3.40;99.90;;;;;;5046275;28;20199;-77
2024/01/14 11:24:51;;;;;;;16.43;7.87;;;3.30;99.90;;;;;;5035518;28;20274;-78
2024/01/14 11:27:19;;;;;;;16.07;8.03;;;3.40;99.90;;;;;;5048543;28;20234;-77
2024/01/14 11:29:47;;;;;;;18.90;8.60;;;3.40;99.90;;;;;;5038911;28;20214;-76
2024/01/14 11:32:16;;;;;;;15.97;7.93;;;3.90;99.90;;;;;;5049961;28;20208;-76
2024/01/14 11:34:55;;;;;;;18.90;8.67;;;3.50;99.90;;;;;;5045459;28;20233;-79
2024/01/14 11:37:38;;;;;;;19.93;10.17;;;3.60;99.90;;;;;;5045842;28;20200;-78
2024/01/14 11:40:16;;;;;;;20.43;9.20;;;3.50;99.90;;;;;;5042731;28;20234;-79
2024/01/14 11:42:49;;;;;;;21.60;9.67;;;3.50;99.90;;;;;;5042143;28;20210;-79
2024/01/14 11:45:36;;;;;;;19.43;9.90;;;3.50;99.90;;;;;;5043180;28;20231;-78
2024/01/14 11:48:04;;;;;;;19.37;9.07;;;3.40;99.90;;;;;;5042237;28;20235;-77
2024/01/14 11:50:32;;;;;;;20.63;10.03;;;3.40;99.90;;;;;;5039588;28;20706;-79
2024/01/14 11:53:01;;;;;;;17.93;9.23;;;3.40;99.90;;;;;;5039155;28;20234;-79
2024/01/14 11:55:30;;;;;;;21.10;10.27;;;3.40;99.90;;;;;;5049966;28;20220;-80
2024/01/14 11:58:09;;;;;;;20.77;9.73;;;3.30;99.90;;;;;;5035840;28;20215;-79
2024/01/14 12:00:38;;;;;;;20.07;9.40;;;3.40;99.90;;;;;;5040332;28;20208;-80
2024/01/14 12:03:07;;;;;;;20.67;9.53;;;3.40;99.90;;;;;;5041629;28;20230;-77
2024/01/14 12:05:33;;;;;;;21.53;9.37;;;3.40;99.90;;;;;;5047396;28;20266;-79
2024/01/14 12:08:01;;;;;;;19.40;9.27;;;3.50;99.90;;;;;;5057366;28;20228;-79
2024/01/14 12:10:31;;;;;;;20.87;9.40;;;3.50;99.90;;;;;;5042368;28;20207;-78
2024/01/14 12:13:00;;;;;;;19.73;9.53;;;3.60;99.90;;;;;;5039008;28;20256;-79
2024/01/14 12:15:27;;;;;;;19.43;8.50;;;3.60;99.90;;;;;;5042059;28;20247;-80
2024/01/14 12:17:59;;;;;;;21.43;9.87;;;3.60;99.90;;;;;;5050932;28;20199;-78
2024/01/14 12:20:27;;;;;;;19.03;8.80;;;3.60;99.90;;;;;;5049808;28;20213;-78
2024/01/14 12:22:58;;;;;;;22.47;10.13;;;3.60;99.90;;;;;;5049626;28;20199;-79
2024/01/14 12:25:25;;;;;;;21.23;10.03;;;3.60;99.90;;;;;;5050598;28;20278;-75
2024/01/14 12:27:52;;;;;;;19.27;9.73;;;3.60;99.90;;;;;;5040857;28;20199;-78
2024/01/14 12:30:26;;;;;;;21.33;10.50;;;3.50;99.90;;;;;;5047318;28;20203;-79
2024/01/14 12:32:53;;;;;;;19.67;9.33;;;3.50;99.90;;;;;;5044238;28;20207;-79
2024/01/14 12:35:31;;;;;;;19.33;8.97;;;4.00;99.90;;;;;;5046256;28;20223;-78
2024/01/14 12:37:57;;;;;;;19.23;8.93;;;3.30;99.90;;;;;;5043177;28;20269;-79
2024/01/14 12:40:26;;;;;;;18.70;9.00;;;3.30;99.90;;;;;;5048611;28;20199;-78
2024/01/14 12:42:53;;;;;;;20.53;9.10;;;3.30;99.90;;;;;;5040923;28;20204;-77
2024/01/14 12:45:20;;;;;;;16.60;8.20;;;3.30;99.90;;;;;;5046073;28;20243;-79
2024/01/14 12:47:56;;;;;;;15.50;7.67;;;3.30;99.90;;;;;;5048239;28;20634;-78
2024/01/14 12:50:26;;;;;;;16.23;7.50;;;3.20;99.90;;;;;;5041075;28;20204;-77